Time;durP1;ratioP1;P1;durP2;ratioP2;P2;SDS_P1;SDS_P2;PMS_P1;PMS_P2;Temp;Humidity;BMP_temperature;BMP_pressure;BME280_temperature;BME280_humidity;BME280_pressure;Samples;Min_cycle;Max_cycle;Signal;HPM_P1;HPM_P2
2024/02/13 00:00:38;;;;;;;6.43;2.43;;;;;;;10.76;50.96;97313.88;5029629;28;20729;-70
2024/02/13 00:03:05;;;;;;;4.80;2.30;;;;;;;10.74;50.85;97310.56;5030089;28;20468;-72
2024/02/13 00:05:33;;;;;;;6.97;2.50;;;;;;;10.73;50.90;97311.53;5038067;28;20211;-70
2024/02/13 00:08:00;;;;;;;10.20;2.53;;;;;;;10.66;51.49;97323.59;5029837;28;20418;-70
2024/02/13 00:10:26;;;;;;;11.57;2.90;;;;;;;10.70;51.46;97319.72;5031091;28;20415;-70
2024/02/13 00:12:52;;;;;;;10.00;4.00;;;;;;;10.64;51.55;97329.00;5036501;28;20416;-70
2024/02/13 00:15:20;;;;;;;8.43;3.33;;;;;;;10.42;51.94;97338.13;5032336;28;20825;-69
2024/02/13 00:17:50;;;;;;;4.17;2.60;;;;;;;10.42;52.31;97336.31;5030587;28;20560;-70
2024/02/13 00:20:17;;;;;;;6.60;2.77;;;;;;;10.45;52.29;97337.84;5029932;28;20421;-69
2024/02/13 00:22:44;;;;;;;7.80;3.00;;;;;;;10.49;52.22;97349.66;5037633;28;20462;-68
2024/02/13 00:25:09;;;;;;;6.50;3.03;;;;;;;10.43;52.37;97345.81;5039003;28;20430;-69
2024/02/13 00:27:35;;;;;;;5.70;2.60;;;;;;;10.52;52.18;97348.53;5029344;28;20484;-73
2024/02/13 00:30:08;;;;;;;8.40;3.07;;;;;;;10.52;51.80;97357.22;5030816;28;20578;-69
2024/02/13 00:32:37;;;;;;;5.33;2.87;;;;;;;10.49;52.06;97357.50;5035069;28;20817;-70
2024/02/13 00:35:04;;;;;;;6.87;3.00;;;;;;;10.54;52.03;97357.91;5030548;28;20439;-69
2024/02/13 00:37:30;;;;;;;8.37;2.63;;;;;;;10.58;51.95;97369.75;5038292;28;20996;-70
2024/02/13 00:39:56;;;;;;;5.90;2.60;;;;;;;10.55;52.16;97364.78;5030433;28;20423;-70
2024/02/13 00:42:21;;;;;;;7.83;2.77;;;;;;;10.56;52.15;97363.81;5036214;28;20212;-69
2024/02/13 00:44:47;;;;;;;7.63;2.60;;;;;;;10.54;51.66;97373.63;5031807;28;20525;-68
2024/02/13 00:47:13;;;;;;;6.83;2.87;;;;;;;10.58;51.63;97375.00;5037228;28;20257;-71
2024/02/13 00:49:38;;;;;;;4.43;2.33;;;;;;;10.44;51.76;97378.09;5033889;28;20273;-69
2024/02/13 00:52:05;;;;;;;4.70;2.53;;;;;;;10.35;52.24;97384.19;5038063;28;20180;-70
2024/02/13 00:54:30;;;;;;;5.37;2.60;;;;;;;10.42;52.42;97393.94;5029352;28;20200;-70
2024/02/13 00:56:56;;;;;;;6.03;2.20;;;;;;;10.48;52.43;97405.66;5035650;28;20435;-69
2024/02/13 00:59:22;;;;;;;7.43;2.60;;;;;;;10.53;52.17;97399.97;5028830;28;20188;-70
2024/02/13 01:01:48;;;;;;;8.10;2.63;;;;;;;10.55;52.36;97409.34;5034459;28;20183;-70
2024/02/13 01:04:13;;;;;;;7.57;2.73;;;;;;;10.49;52.62;97411.72;5030682;28;20449;-69
2024/02/13 01:06:39;;;;;;;5.83;2.70;;;;;;;10.52;52.35;97412.25;5022233;28;20176;-69
2024/02/13 01:09:05;;;;;;;5.33;2.73;;;;;;;10.44;52.29;97427.88;5030892;28;20262;-70
2024/02/13 01:11:35;;;;;;;5.40;2.67;;;;;;;10.42;52.63;97428.00;5037562;28;20226;-70
2024/02/13 01:14:04;;;;;;;5.43;2.57;;;;;;;10.42;52.57;97435.88;5029290;28;20223;-70
2024/02/13 01:16:29;;;;;;;9.57;2.37;;;;;;;10.43;53.01;97431.47;5030891;28;21271;-69
2024/02/13 01:18:56;;;;;;;10.13;2.70;;;;;;;10.41;53.12;97436.03;5033544;28;20509;-69
2024/02/13 01:21:22;;;;;;;6.70;2.70;;;;;;;10.54;53.00;97440.91;5028505;28;20291;-70
2024/02/13 01:23:49;;;;;;;9.03;2.43;;;;;;;10.59;52.44;97442.13;5036197;28;20474;-70
2024/02/13 01:26:17;;;;;;;6.57;2.87;;;;;;;10.51;52.98;97444.66;5029209;28;20226;-71
2024/02/13 01:28:42;;;;;;;6.73;2.47;;;;;;;10.53;52.78;97445.34;5021521;28;20452;-70
2024/02/13 01:31:08;;;;;;;5.33;2.27;;;;;;;10.59;52.93;97451.81;5029285;28;20521;-70
2024/02/13 01:33:33;;;;;;;7.23;2.87;;;;;;;10.62;53.00;97453.28;5031089;28;20204;-70
2024/02/13 01:35:59;;;;;;;5.47;2.40;;;;;;;10.68;52.69;97450.91;5042699;28;20834;-69
2024/02/13 01:38:27;;;;;;;9.30;2.50;;;;;;;10.72;52.29;97451.44;5037523;28;20183;-69
2024/02/13 01:40:53;;;;;;;14.13;2.40;;;;;;;10.71;52.07;97448.00;5040970;28;20187;-68
2024/02/13 01:43:18;;;;;;;6.80;2.47;;;;;;;10.64;52.05;97453.97;5029523;28;20589;-70
2024/02/13 01:45:48;;;;;;;10.00;2.57;;;;;;;10.68;52.33;97455.34;5028705;28;20186;-69
2024/02/13 01:48:17;;;;;;;6.27;1.97;;;;;;;10.75;52.21;97456.41;5027877;28;20190;-70
2024/02/13 01:50:43;;;;;;;10.07;2.53;;;;;;;10.77;52.50;97467.56;5031805;28;20454;-71
2024/02/13 01:53:09;;;;;;;9.37;2.27;;;;;;;10.81;52.10;97465.47;5028646;28;20538;-69
2024/02/13 01:55:35;;;;;;;8.80;2.43;;;;;;;10.85;51.91;97466.84;5027671;28;21024;-70
2024/02/13 01:58:04;;;;;;;6.80;2.47;;;;;;;10.84;51.85;97466.00;5031052;28;20191;-69
2024/02/13 02:00:33;;;;;;;6.30;2.33;;;;;;;10.77;51.81;97475.44;5028307;28;20187;-69
2024/02/13 02:02:59;;;;;;;5.27;2.50;;;;;;;10.82;52.09;97478.44;5028526;28;20997;-69
2024/02/13 02:05:25;;;;;;;5.70;1.93;;;;;;;10.83;51.71;97482.72;5027708;28;20450;-70
2024/02/13 02:07:51;;;;;;;3.63;2.10;;;;;;;10.83;51.67;97480.09;5037166;28;20484;-70
2024/02/13 02:10:17;;;;;;;7.47;2.13;;;;;;;10.85;51.85;97477.31;5029532;28;20664;-70
2024/02/13 02:12:42;;;;;;;6.87;3.00;;;;;;;10.83;52.01;97474.84;5028154;28;20184;-70
2024/02/13 02:15:10;;;;;;;4.67;2.10;;;;;;;10.84;51.67;97468.63;5027581;28;20218;-69
2024/02/13 02:17:36;;;;;;;4.00;2.33;;;;;;;10.83;51.55;97477.47;5028396;28;20267;-70
2024/02/13 02:20:02;;;;;;;8.83;2.30;;;;;;;10.76;51.53;97481.66;5028193;28;20900;-69
2024/02/13 02:22:28;;;;;;;6.17;2.30;;;;;;;10.70;51.79;97484.88;5034822;28;20207;-70
2024/02/13 02:24:54;;;;;;;3.03;2.03;;;;;;;10.57;52.10;97486.03;5027883;28;20450;-70
2024/02/13 02:27:20;;;;;;;6.47;2.67;;;;;;;10.64;52.43;97490.69;5034943;28;20422;-69
2024/02/13 02:29:46;;;;;;;5.83;2.40;;;;;;;10.69;52.27;97488.44;5027894;28;20798;-68
2024/02/13 02:32:11;;;;;;;11.00;2.53;;;;;;;10.59;51.92;97491.94;5027532;28;20267;-70
2024/02/13 02:34:37;;;;;;;7.50;2.20;;;;;;;10.45;52.25;97489.81;5034646;28;20207;-71
2024/02/13 02:37:04;;;;;;;7.93;2.50;;;;;;;10.39;52.55;97500.84;5027906;28;20263;-69
2024/02/13 02:39:29;;;;;;;11.77;2.57;;;;;;;10.42;52.69;97495.34;5034717;28;20614;-69
2024/02/13 02:41:55;;;;;;;7.63;2.60;;;;;;;10.39;52.22;97500.84;5027407;28;20426;-70
2024/02/13 02:44:21;;;;;;;8.10;2.40;;;;;;;10.34;52.53;97503.03;5030607;28;20686;-70
2024/02/13 02:46:48;;;;;;;5.53;2.50;;;;;;;10.22;52.93;97511.06;5026617;28;20696;-69
2024/02/13 02:49:15;;;;;;;7.23;3.10;;;;;;;10.13;53.26;97514.56;5021662;28;20413;-68
2024/02/13 02:51:42;;;;;;;6.50;2.10;;;;;;;10.16;53.44;97506.41;5028809;28;20464;-70
2024/02/13 02:54:08;;;;;;;6.33;2.80;;;;;;;10.09;53.27;97510.56;5027377;28;20485;-70
2024/02/13 02:56:35;;;;;;;4.27;2.07;;;;;;;9.99;54.14;97511.41;5028460;28;21169;-69
2024/02/13 02:59:00;;;;;;;4.57;2.53;;;;;;;10.07;53.36;97507.28;5031054;28;20923;-69
2024/02/13 03:01:25;;;;;;;7.90;3.03;;;;;;;10.06;53.54;97523.97;5027617;28;20422;-69
2024/02/13 03:03:51;;;;;;;7.50;2.33;;;;;;;10.06;53.70;97523.97;5027137;28;20216;-69
2024/02/13 03:06:16;;;;;;;6.60;2.37;;;;;;;10.09;53.29;97532.34;5033977;28;20183;-70
2024/02/13 03:08:42;;;;;;;4.67;2.30;;;;;;;9.97;53.02;97528.25;5031641;28;20769;-71
2024/02/13 03:11:08;;;;;;;6.27;2.80;;;;;;;9.96;53.01;97530.00;5022458;28;20201;-70
2024/02/13 03:13:34;;;;;;;6.93;4.20;;;;;;;9.98;53.31;97533.31;5025670;28;20681;-69
2024/02/13 03:15:59;;;;;;;8.73;4.13;;;;;;;9.98;53.49;97535.94;5026832;28;20457;-69
2024/02/13 03:18:26;;;;;;;9.43;3.40;;;;;;;10.01;53.41;97536.63;5031924;28;20600;-69
2024/02/13 03:20:52;;;;;;;6.87;2.73;;;;;;;10.08;52.97;97537.75;5026900;28;20230;-70
2024/02/13 03:23:17;;;;;;;3.33;2.27;;;;;;;10.06;53.68;97540.47;5025767;28;20473;-69
2024/02/13 03:25:43;;;;;;;9.80;2.97;;;;;;;10.06;53.67;97537.03;5026481;28;20187;-70
2024/02/13 03:28:08;;;;;;;3.90;2.30;;;;;;;9.93;53.62;97532.94;5031995;28;20187;-68
2024/02/13 03:30:34;;;;;;;3.93;2.33;;;;;;;9.87;53.84;97543.94;5029766;28;20605;-69
2024/02/13 03:33:00;;;;;;;5.53;2.07;;;;;;;9.87;53.88;97543.94;5027360;28;20295;-70
2024/02/13 03:35:26;;;;;;;5.73;2.67;;;;;;;9.86;54.27;97541.47;5026808;28;20188;-71
2024/02/13 03:37:51;;;;;;;4.47;2.10;;;;;;;9.93;53.94;97551.25;5026773;28;20961;-70
2024/02/13 03:40:17;;;;;;;5.13;2.00;;;;;;;9.92;54.10;97543.53;5027177;28;20227;-71
2024/02/13 03:42:45;;;;;;;4.60;2.10;;;;;;;10.02;54.01;97541.72;5030140;28;20212;-70
2024/02/13 03:45:11;;;;;;;3.90;1.83;;;;;;;10.04;53.82;97554.69;5030993;28;20465;-69
2024/02/13 03:47:37;;;;;;;5.93;2.63;;;;;;;10.07;53.94;97546.56;5029990;28;20423;-69
2024/02/13 03:50:02;;;;;;;5.00;2.10;;;;;;;10.12;54.13;97552.19;5032348;28;20259;-69
2024/02/13 03:52:28;;;;;;;5.70;2.10;;;;;;;10.11;53.92;97550.53;5029234;28;20184;-69
2024/02/13 03:54:53;;;;;;;7.90;2.03;;;;;;;10.10;54.00;97560.19;5029436;28;20215;-70
2024/02/13 03:57:19;;;;;;;4.90;1.63;;;;;;;10.10;54.52;97556.72;5037182;28;20179;-70
2024/02/13 03:59:44;;;;;;;3.20;1.93;;;;;;;10.18;54.17;97556.03;5035343;28;20219;-69
2024/02/13 04:02:10;;;;;;;7.73;3.03;;;;;;;10.18;54.45;97566.50;5030430;28;20184;-70
2024/02/13 04:04:36;;;;;;;6.23;3.50;;;;;;;10.14;54.63;97565.97;5030348;28;20746;-70
2024/02/13 04:07:04;;;;;;;5.83;2.60;;;;;;;10.15;54.80;97573.66;5031670;28;20431;-69
2024/02/13 04:09:30;;;;;;;4.80;2.33;;;;;;;10.13;54.31;97566.94;5035722;28;20180;-71
2024/02/13 04:11:56;;;;;;;4.33;2.27;;;;;;;10.19;54.62;97568.16;5038238;28;20431;-70
2024/02/13 04:14:23;;;;;;;9.13;2.60;;;;;;;10.11;54.68;97567.09;5032204;28;20539;-69
2024/02/13 04:16:49;;;;;;;6.20;3.00;;;;;;;10.15;55.00;97572.88;5034659;28;20321;-69
2024/02/13 04:19:14;;;;;;;6.17;3.07;;;;;;;10.23;54.50;97574.78;5031355;28;20461;-70
2024/02/13 04:21:40;;;;;;;7.37;3.23;;;;;;;10.28;54.44;97576.00;5033827;28;20508;-71
2024/02/13 04:24:06;;;;;;;6.40;2.83;;;;;;;10.28;54.45;97573.38;5030749;28;20757;-70
2024/02/13 04:26:32;;;;;;;2.77;2.13;;;;;;;10.25;54.27;97568.44;5037418;28;20199;-70
2024/02/13 04:28:58;;;;;;;5.70;2.80;;;;;;;10.32;54.10;97573.13;5032287;28;20556;-69
2024/02/13 04:31:23;;;;;;;4.57;2.87;;;;;;;10.29;54.06;97579.44;5026829;28;20179;-70
2024/02/13 04:33:48;;;;;;;5.37;2.73;;;;;;;10.22;54.24;97583.59;5028685;28;20195;-70
2024/02/13 04:36:14;;;;;;;5.40;2.60;;;;;;;10.20;54.09;97582.91;5045233;28;20837;-69
2024/02/13 04:38:39;;;;;;;4.37;2.70;;;;;;;10.15;54.36;97583.34;5029339;28;20172;-71
2024/02/13 04:41:05;;;;;;;11.63;2.60;;;;;;;10.17;54.03;97591.03;5032441;28;20183;-69
2024/02/13 04:43:32;;;;;;;8.83;2.53;;;;;;;10.05;53.64;97587.75;5035738;28;20215;-69
2024/02/13 04:45:59;;;;;;;4.73;2.67;;;;;;;9.94;53.81;97597.44;5031457;28;20183;-70
2024/02/13 04:48:24;;;;;;;5.87;3.00;;;;;;;9.83;54.75;97594.91;5042915;28;20432;-69
2024/02/13 04:50:49;;;;;;;5.20;2.30;;;;;;;9.87;54.60;97601.53;5031865;28;20517;-69
2024/02/13 04:53:19;;;;;;;4.53;2.20;;;;;;;9.85;54.28;97598.25;5036222;28;20206;-70
2024/02/13 04:55:45;;;;;;;3.87;2.30;;;;;;;9.72;55.23;97598.53;5028041;28;20191;-70
2024/02/13 04:58:17;;;;;;;7.90;2.70;;;;;;;9.74;54.71;97599.22;5033970;28;20454;-69
2024/02/13 05:00:51;;;;;;;7.53;2.87;;;;;;;9.57;55.34;97600.72;5040181;28;20181;-72
2024/02/13 05:03:24;;;;;;;3.17;2.03;;;;;;;9.60;55.34;97600.44;5029808;28;20982;-69
2024/02/13 05:08:34;;;;;;;6.43;2.53;;;;;;;9.66;55.16;97593.81;5026185;28;20425;-70
2024/02/13 05:11:00;;;;;;;6.40;2.57;;;;;;;9.71;55.09;97607.34;5037041;28;20516;-70
2024/02/13 05:13:26;;;;;;;5.10;1.67;;;;;;;9.74;54.97;97606.22;5030809;28;20200;-70
2024/02/13 05:15:51;;;;;;;9.00;3.30;;;;;;;9.71;55.21;97601.25;5028237;28;20267;-70
2024/02/13 05:18:17;;;;;;;8.37;2.40;;;;;;;9.70;55.23;97600.44;5028672;28;20449;-70
2024/02/13 05:20:45;;;;;;;3.40;2.47;;;;;;;9.74;55.38;97595.75;5036632;28;20267;-70
2024/02/13 05:23:11;;;;;;;8.23;2.17;;;;;;;9.72;54.92;97597.69;5027876;28;20204;-72
2024/02/13 05:25:39;;;;;;;5.47;2.50;;;;;;;9.66;55.11;97597.28;5034456;28;20510;-69
2024/02/13 05:28:04;;;;;;;11.60;3.20;;;;;;;9.70;54.50;97607.47;5031115;28;20179;-71
2024/02/13 05:30:30;;;;;;;4.63;2.60;;;;;;;9.70;54.62;97599.63;5032134;28;20505;-71
2024/02/13 05:32:55;;;;;;;8.10;2.83;;;;;;;9.70;54.87;97603.06;5029914;28;20184;-70
2024/02/13 05:35:21;;;;;;;4.73;2.83;;;;;;;9.72;54.56;97602.91;5036005;28;20191;-70
2024/02/13 05:37:47;;;;;;;4.60;2.37;;;;;;;9.70;55.08;97608.31;5028201;28;20184;-70
2024/02/13 05:40:13;;;;;;;5.63;2.83;;;;;;;9.72;54.96;97611.59;5028377;28;20179;-69
2024/02/13 05:42:38;;;;;;;6.47;3.17;;;;;;;9.71;54.95;97603.88;5030897;28;20871;-70
2024/02/13 05:45:05;;;;;;;8.97;5.13;;;;;;;9.45;55.11;97612.28;5027964;28;20804;-70
2024/02/13 05:47:35;;;;;;;12.63;5.97;;;;;;;9.50;55.48;97596.97;5029033;28;20219;-70
2024/02/13 05:50:03;;;;;;;10.30;6.27;;;;;;;9.51;55.17;97609.09;5028979;28;20422;-69
2024/02/13 05:52:30;;;;;;;17.77;9.07;;;;;;;9.55;55.09;97602.66;5028582;28;20499;-73
2024/02/13 05:54:56;;;;;;;26.27;15.10;;;;;;;9.58;55.70;97599.75;5026384;28;20489;-69
2024/02/13 05:57:21;;;;;;;29.87;15.40;;;;;;;9.49;55.69;97611.03;5028605;28;21146;-69
2024/02/13 05:59:47;;;;;;;15.63;7.37;;;;;;;9.44;55.50;97616.66;5027550;28;20190;-68
2024/02/13 06:02:13;;;;;;;16.07;6.50;;;;;;;9.53;56.13;97620.28;5028577;28;20184;-70
2024/02/13 06:04:39;;;;;;;6.70;2.97;;;;;;;9.51;55.36;97617.75;5041656;28;20221;-71
2024/02/13 06:07:05;;;;;;;8.20;3.50;;;;;;;9.41;56.50;97618.72;5027469;28;20230;-70
2024/02/13 06:09:31;;;;;;;4.60;2.73;;;;;;;9.45;56.00;97617.50;5027991;28;20569;-70
2024/02/13 06:11:56;;;;;;;7.50;3.10;;;;;;;9.55;56.48;97622.75;5031785;28;20433;-70
2024/02/13 06:14:22;;;;;;;4.93;2.80;;;;;;;9.67;56.46;97622.50;5027904;28;20207;-70
2024/02/13 06:16:47;;;;;;;9.87;3.03;;;;;;;9.78;56.04;97620.72;5033565;28;20538;-68
2024/02/13 06:19:13;;;;;;;7.20;3.50;;;;;;;9.74;56.16;97633.25;5024103;28;20190;-71
2024/02/13 06:21:39;;;;;;;9.90;4.57;;;;;;;9.81;55.98;97628.28;5033009;28;20186;-70
2024/02/13 06:24:05;;;;;;;7.57;4.00;;;;;;;9.71;55.94;97630.91;5027485;28;20244;-70
2024/02/13 06:26:30;;;;;;;11.97;3.93;;;;;;;9.62;55.70;97635.16;5023710;28;20430;-70
2024/02/13 06:28:56;;;;;;;6.83;3.80;;;;;;;9.57;56.63;97637.38;5035149;28;20219;-69
2024/02/13 06:31:21;;;;;;;7.77;3.43;;;;;;;9.60;56.51;97639.69;5031869;28;20175;-70
2024/02/13 06:33:47;;;;;;;5.20;2.83;;;;;;;9.64;56.47;97655.97;5032551;28;20227;-70
2024/02/13 06:36:13;;;;;;;9.03;3.47;;;;;;;9.70;56.17;97659.84;5018925;28;20180;-68
2024/02/13 06:38:38;;;;;;;7.80;3.43;;;;;;;9.67;56.57;97653.91;5026649;28;20191;-70
2024/02/13 06:41:05;;;;;;;10.00;3.60;;;;;;;9.62;56.62;97666.56;5028543;28;20953;-69
2024/02/13 06:43:34;;;;;;;17.87;3.10;;;;;;;9.61;56.86;97662.28;5027708;28;20216;-70
2024/02/13 06:46:00;;;;;;;6.40;2.73;;;;;;;9.63;56.77;97668.22;5034759;28;21008;-69
2024/02/13 06:48:25;;;;;;;7.10;2.70;;;;;;;9.64;56.35;97677.72;5027861;28;20502;-69
2024/02/13 06:50:50;;;;;;;6.20;2.67;;;;;;;9.75;56.54;97675.94;5028177;28;20621;-69
2024/02/13 06:53:16;;;;;;;6.70;3.00;;;;;;;9.84;56.18;97685.59;5027036;28;20805;-69
2024/02/13 06:55:42;;;;;;;11.23;2.57;;;;;;;9.88;55.85;97686.16;5031167;28;20679;-70
2024/02/13 06:58:07;;;;;;;7.20;2.40;;;;;;;9.95;56.11;97689.88;5027933;28;20266;-70
2024/02/13 07:00:33;;;;;;;3.53;2.60;;;;;;;9.94;55.87;97691.69;5036332;28;20560;-71
2024/02/13 07:02:59;;;;;;;6.33;2.70;;;;;;;10.01;55.88;97689.34;5029570;28;20256;-70
2024/02/13 07:05:26;;;;;;;12.93;2.90;;;;;;;10.06;55.71;97695.00;5033183;28;20186;-70
2024/02/13 07:07:52;;;;;;;5.93;2.70;;;;;;;10.09;55.31;97688.63;5025881;28;21313;-69
2024/02/13 07:10:17;;;;;;;6.00;2.43;;;;;;;10.05;55.79;97692.53;5027562;28;20434;-69
2024/02/13 07:12:43;;;;;;;5.37;2.47;;;;;;;10.10;55.80;97690.31;5029427;28;20856;-68
2024/02/13 07:15:09;;;;;;;5.53;2.50;;;;;;;10.03;55.63;97697.06;5026156;28;20219;-68
2024/02/13 07:17:35;;;;;;;12.40;3.10;;;;;;;10.05;55.98;97706.44;5032810;28;20176;-69
2024/02/13 07:20:00;;;;;;;8.30;3.03;;;;;;;10.14;56.29;97707.41;5032237;28;20191;-69
2024/02/13 07:22:26;;;;;;;6.57;2.90;;;;;;;10.24;55.97;97708.22;5031258;28;20543;-69
2024/02/13 07:24:51;;;;;;;8.10;3.30;;;;;;;10.29;55.60;97703.41;5032837;28;20846;-70
2024/02/13 07:27:17;;;;;;;6.80;3.47;;;;;;;10.34;55.68;97702.16;5031280;28;20184;-69
2024/02/13 07:29:43;;;;;;;6.93;3.93;;;;;;;10.34;55.63;97704.78;5035247;28;20188;-70
2024/02/13 07:32:10;;;;;;;12.27;3.70;;;;;;;10.43;55.79;97706.63;5030900;28;20237;-69
2024/02/13 07:34:38;;;;;;;7.57;3.47;;;;;;;10.52;55.94;97700.53;5031003;28;20450;-68
2024/02/13 07:37:07;;;;;;;4.87;3.27;;;;;;;10.50;55.30;97706.88;5030357;28;20901;-68
2024/02/13 07:39:36;;;;;;;8.67;2.97;;;;;;;10.51;54.99;97709.34;5030300;28;20437;-69
2024/02/13 07:42:01;;;;;;;5.33;2.90;;;;;;;10.66;55.23;97714.16;5033384;28;20596;-69
2024/02/13 07:44:29;;;;;;;6.43;3.30;;;;;;;10.80;55.61;97718.13;5029787;28;21037;-69
2024/02/13 07:46:56;;;;;;;17.63;4.40;;;;;;;10.90;55.33;97711.06;5030335;28;20232;-69
2024/02/13 07:49:22;;;;;;;6.90;3.20;;;;;;;10.85;54.10;97719.38;5031411;28;20914;-68
2024/02/13 07:51:48;;;;;;;5.67;3.00;;;;;;;10.98;54.85;97718.22;5030108;28;20453;-69
2024/02/13 07:54:14;;;;;;;8.20;3.67;;;;;;;11.12;55.37;97720.41;5037583;28;20429;-68
2024/02/13 07:56:41;;;;;;;7.73;3.93;;;;;;;11.26;55.30;97720.91;5035004;28;20411;-71
2024/02/13 07:59:06;;;;;;;7.63;3.10;;;;;;;11.37;54.70;97720.72;5029538;28;20430;-69
2024/02/13 08:01:33;;;;;;;8.17;3.20;;;;;;;11.47;54.82;97718.88;5029883;28;21033;-69
2024/02/13 08:04:00;;;;;;;4.80;2.33;;;;;;;11.49;53.71;97708.25;5029115;28;20216;-69
2024/02/13 08:06:25;;;;;;;3.30;2.20;;;;;;;11.49;53.07;97714.31;5027265;28;20437;-70
2024/02/13 08:08:51;;;;;;;5.00;1.80;;;;;;;11.53;52.74;97720.09;5035298;28;20418;-69
2024/02/13 08:11:17;;;;;;;4.50;2.07;;;;;;;11.47;52.51;97718.88;5033293;28;20188;-70
2024/02/13 08:13:43;;;;;;;6.57;2.13;;;;;;;11.46;52.25;97722.50;5029932;28;20199;-70
2024/02/13 08:16:09;;;;;;;4.20;1.83;;;;;;;11.63;51.76;97717.44;5030088;28;20176;-69
2024/02/13 08:18:39;;;;;;;5.67;2.03;;;;;;;11.76;51.61;97717.91;5029917;28;20445;-69
2024/02/13 08:21:05;;;;;;;4.50;1.87;;;;;;;12.04;50.96;97722.31;5028591;28;20484;-69
2024/02/13 08:23:33;;;;;;;6.30;2.10;;;;;;;12.31;50.44;97728.50;5029925;28;20882;-71
2024/02/13 08:25:58;;;;;;;5.70;2.17;;;;;;;12.56;49.49;97721.66;5028735;28;20275;-69
2024/02/13 08:28:23;;;;;;;4.53;1.80;;;;;;;12.88;48.35;97728.97;5032498;28;20510;-69
2024/02/13 08:30:49;;;;;;;12.50;2.20;;;;;;;13.21;47.72;97725.69;5030886;28;20205;-69
2024/02/13 08:33:16;;;;;;;7.33;2.00;;;;;;;13.41;45.82;97721.06;5031707;28;20266;-68
2024/02/13 08:35:42;;;;;;;8.00;2.00;;;;;;;13.83;46.09;97729.94;5034195;28;20188;-69
2024/02/13 08:38:08;;;;;;;4.30;2.07;;;;;;;14.28;45.73;97731.34;5029642;28;20418;-68
2024/02/13 08:40:33;;;;;;;7.80;2.37;;;;;;;14.75;44.67;97729.06;5032022;28;20819;-69
2024/02/13 08:42:59;;;;;;;5.30;2.10;;;;;;;14.87;43.98;97722.44;5037544;28;20480;-69
2024/02/13 08:45:24;;;;;;;5.57;1.50;;;;;;;15.14;41.63;97728.34;5029259;28;20199;-70
2024/02/13 08:47:50;;;;;;;2.73;1.80;;;;;;;15.46;42.27;97720.50;5032289;28;20684;-69
2024/02/13 08:50:17;;;;;;;3.77;1.40;;;;;;;15.73;40.27;97726.34;5029698;28;20270;-68
2024/02/13 08:52:42;;;;;;;4.20;1.73;;;;;;;16.05;40.30;97720.06;5034849;28;20184;-70
2024/02/13 08:55:08;;;;;;;5.90;1.77;;;;;;;16.04;39.69;97723.72;5025613;28;20845;-71
2024/02/13 08:57:35;;;;;;;8.53;1.93;;;;;;;16.21;39.86;97723.63;5026968;28;20268;-71
2024/02/13 09:00:01;;;;;;;2.63;1.47;;;;;;;16.63;38.60;97740.00;5029286;28;20435;-72
2024/02/13 09:02:26;;;;;;;8.60;2.10;;;;;;;17.12;38.64;97736.94;5025997;28;20519;-69
2024/02/13 09:04:52;;;;;;;9.23;2.23;;;;;;;17.14;37.19;97742.03;5032712;28;20442;-69
2024/02/13 09:07:17;;;;;;;4.60;1.90;;;;;;;17.57;37.00;97738.78;5028153;28;20266;-69
2024/02/13 09:09:43;;;;;;;3.53;1.37;;;;;;;17.68;36.44;97740.97;5028738;28;20219;-70
2024/02/13 09:12:08;;;;;;;4.80;1.80;;;;;;;17.48;36.92;97738.06;5029476;28;20266;-69
2024/02/13 09:14:34;;;;;;;5.10;1.70;;;;;;;17.18;37.15;97743.34;5033529;28;20235;-69
2024/02/13 09:17:00;;;;;;;4.63;1.60;;;;;;;16.94;37.68;97734.63;5030510;28;20272;-69
2024/02/13 09:19:29;;;;;;;5.57;1.80;;;;;;;16.86;37.60;97732.84;5027488;28;20418;-68
2024/02/13 09:21:55;;;;;;;3.53;1.70;;;;;;;17.14;37.93;97734.94;5031115;28;20192;-70
2024/02/13 09:24:23;;;;;;;4.50;1.70;;;;;;;17.59;37.30;97739.41;5028349;28;21012;-69
2024/02/13 09:26:51;;;;;;;5.37;1.90;;;;;;;17.94;36.48;97735.16;5028669;28;20553;-71
2024/02/13 09:29:17;;;;;;;5.50;1.80;;;;;;;18.28;35.76;97738.19;5028241;28;20430;-71
2024/02/13 09:31:43;;;;;;;4.67;1.87;;;;;;;18.58;35.39;97738.88;5028736;28;20514;-69
2024/02/13 09:34:08;;;;;;;5.53;1.80;;;;;;;18.74;34.24;97729.00;5028119;28;20430;-70
2024/02/13 09:36:37;;;;;;;2.63;1.63;;;;;;;19.11;34.30;97727.06;5027860;28;20184;-69
2024/02/13 09:39:03;;;;;;;3.83;1.80;;;;;;;19.14;33.65;97733.81;5028724;28;20191;-70
2024/02/13 09:41:29;;;;;;;2.07;1.50;;;;;;;19.22;33.57;97733.66;5034000;28;20413;-69
2024/02/13 09:43:55;;;;;;;4.60;1.77;;;;;;;19.07;33.20;97747.06;5032978;28;20466;-70
2024/02/13 09:46:24;;;;;;;6.17;1.90;;;;;;;19.00;33.80;97738.22;5028262;28;20195;-69
2024/02/13 09:48:49;;;;;;;5.70;2.13;;;;;;;19.18;33.57;97735.88;5029497;28;21044;-70
2024/02/13 09:51:17;;;;;;;5.20;1.93;;;;;;;18.85;34.19;97751.53;5040625;28;20423;-69
2024/02/13 09:53:43;;;;;;;6.23;1.70;;;;;;;18.91;33.79;97740.19;5033089;28;20832;-70
2024/02/13 09:56:12;;;;;;;5.30;1.90;;;;;;;18.96;33.50;97748.44;5031742;28;20525;-69
2024/02/13 09:58:38;;;;;;;7.80;2.10;;;;;;;19.16;33.17;97748.53;5031971;28;20940;-69
2024/02/13 10:01:05;;;;;;;5.47;1.80;;;;;;;19.36;33.42;97745.19;5034234;28;20421;-69
2024/02/13 10:03:30;;;;;;;3.13;1.77;;;;;;;19.12;33.40;97744.66;5027619;28;20462;-69
2024/02/13 10:05:56;;;;;;;4.00;1.90;;;;;;;19.14;33.34;97742.63;5029284;28;20786;-69
2024/02/13 10:08:27;;;;;;;5.33;2.30;;;;;;;19.01;32.71;97739.88;5034628;28;20629;-70
2024/02/13 10:11:05;;;;;;;4.73;2.10;;;;;;;18.97;32.06;97735.94;5037114;28;20198;-70
2024/02/13 10:13:38;;;;;;;4.10;1.70;;;;;;;18.62;33.08;97749.13;5034325;28;20434;-69
2024/02/13 10:16:04;;;;;;;3.67;1.67;;;;;;;18.03;34.03;97743.84;5026771;28;20833;-68
2024/02/13 10:18:29;;;;;;;4.43;2.00;;;;;;;18.37;34.32;97742.34;5028394;28;20430;-69
2024/02/13 10:20:55;;;;;;;5.03;1.80;;;;;;;18.74;33.15;97739.63;5028134;28;20492;-69
2024/02/13 10:23:24;;;;;;;7.20;2.00;;;;;;;18.80;33.62;97744.16;5028926;28;20208;-69
2024/02/13 10:25:50;;;;;;;3.80;1.70;;;;;;;19.09;32.43;97742.38;5032939;28;20250;-69
2024/02/13 10:28:17;;;;;;;4.53;1.50;;;;;;;19.50;32.27;97738.13;5036777;28;20425;-69
2024/02/13 10:30:48;;;;;;;4.53;1.50;;;;;;;19.56;31.78;97734.69;5027543;28;20423;-71
2024/02/13 10:33:15;;;;;;;6.23;1.87;;;;;;;19.98;31.29;97737.31;5034958;28;20442;-70
2024/02/13 10:35:40;;;;;;;3.23;1.80;;;;;;;20.44;30.59;97738.47;5027532;28;20419;-71
2024/02/13 10:38:09;;;;;;;2.77;1.60;;;;;;;20.60;29.51;97747.88;5026750;28;20892;-69
2024/02/13 10:40:39;;;;;;;8.13;1.70;;;;;;;20.40;30.58;97748.69;5036018;28;20187;-70
2024/02/13 10:43:08;;;;;;;3.93;1.50;;;;;;;20.36;28.82;97757.25;5023923;28;20458;-69
2024/02/13 10:45:35;;;;;;;2.67;1.30;;;;;;;19.90;29.16;97758.78;5027184;28;20920;-71
2024/02/13 10:48:15;;;;;;;3.43;1.00;;;;;;;19.45;29.62;97762.63;5025459;28;20453;-70
2024/02/13 10:50:42;;;;;;;6.97;1.80;;;;;;;19.19;30.11;97764.09;5026419;28;20509;-70
2024/02/13 10:53:10;;;;;;;3.17;1.30;;;;;;;18.91;29.86;97765.91;5030063;28;20434;-68
2024/02/13 10:55:37;;;;;;;4.17;1.40;;;;;;;19.06;30.67;97764.00;5031208;28;20428;-69
2024/02/13 10:58:03;;;;;;;3.10;1.17;;;;;;;19.24;30.13;97750.22;5030334;28;20423;-71
2024/02/13 11:00:28;;;;;;;3.03;1.03;;;;;;;19.21;29.23;97750.63;5030745;28;20449;-70
2024/02/13 11:02:55;;;;;;;2.40;1.13;;;;;;;19.26;29.93;97764.16;5038026;28;20207;-70
2024/02/13 11:05:25;;;;;;;4.60;1.10;;;;;;;19.38;29.70;97747.66;5031652;28;20204;-70
2024/02/13 11:07:51;;;;;;;3.20;1.40;;;;;;;19.71;29.17;97750.50;5030421;28;20919;-71
2024/02/13 11:10:17;;;;;;;8.20;1.27;;;;;;;19.65;29.40;97749.44;5029788;28;20520;-69
2024/02/13 11:12:45;;;;;;;2.07;1.10;;;;;;;19.71;29.24;97750.50;5033075;28;20453;-71
2024/02/13 11:15:15;;;;;;;1.80;1.00;;;;;;;19.19;28.62;97748.16;5029132;28;20219;-70
2024/02/13 11:17:44;;;;;;;5.20;1.27;;;;;;;18.66;29.45;97766.28;5030079;28;20410;-71
2024/02/13 11:20:10;;;;;;;1.50;1.10;;;;;;;18.67;29.87;97759.97;5033526;28;20782;-70
2024/02/13 11:22:37;;;;;;;2.20;1.20;;;;;;;18.41;29.65;97761.38;5029888;28;20450;-69
2024/02/13 11:25:08;;;;;;;3.10;1.50;;;;;;;18.21;30.30;97762.00;5030702;28;20497;-71
2024/02/13 11:27:36;;;;;;;2.33;1.17;;;;;;;18.21;31.12;97767.31;5030092;28;20465;-70
2024/02/13 11:30:06;;;;;;;2.97;0.93;;;;;;;18.25;30.60;97768.59;5030396;28;20426;-69
2024/02/13 11:32:37;;;;;;;3.07;1.30;;;;;;;18.18;31.05;97770.31;5028735;28;20513;-70